sensor_id;sensor_type;location;lat;lon;timestamp;temperature;humidity
831;DHT22;397;50.564;7.272;2023-05-08T00:00:20;15.60;99.90
831;DHT22;397;50.564;7.272;2023-05-08T00:02:47;15.60;99.90
831;DHT22;397;50.564;7.272;2023-05-08T00:05:15;15.60;99.90
831;DHT22;397;50.564;7.272;2023-05-08T00:07:42;15.60;99.90
831;DHT22;397;50.564;7.272;2023-05-08T00:10:10;15.50;99.90
831;DHT22;397;50.564;7.272;2023-05-08T00:12:38;15.50;99.90
831;DHT22;397;50.564;7.272;2023-05-08T00:15:06;15.50;99.90
831;DHT22;397;50.564;7.272;2023-05-08T00:17:34;15.60;99.90
831;DHT22;397;50.564;7.272;2023-05-08T00:20:02;15.70;99.90
831;DHT22;397;50.564;7.272;2023-05-08T00:22:29;15.60;99.90
831;DHT22;397;50.564;7.272;2023-05-08T00:24:57;15.50;99.90
831;DHT22;397;50.564;7.272;2023-05-08T00:27:24;15.50;99.90
831;DHT22;397;50.564;7.272;2023-05-08T00:29:51;15.50;99.90
831;DHT22;397;50.564;7.272;2023-05-08T00:32:19;15.60;99.90
831;DHT22;397;50.564;7.272;2023-05-08T00:34:46;15.60;99.90
831;DHT22;397;50.564;7.272;2023-05-08T00:37:14;15.60;99.90
831;DHT22;397;50.564;7.272;2023-05-08T00:39:42;15.60;99.90
831;DHT22;397;50.564;7.272;2023-05-08T00:42:09;15.50;99.90
831;DHT22;397;50.564;7.272;2023-05-08T00:44:37;15.50;99.90
831;DHT22;397;50.564;7.272;2023-05-08T00:47:06;15.50;99.90
831;DHT22;397;50.564;7.272;2023-05-08T00:49:35;15.60;99.90
831;DHT22;397;50.564;7.272;2023-05-08T00:52:03;15.60;99.90
831;DHT22;397;50.564;7.272;2023-05-08T00:54:35;15.70;99.90
831;DHT22;397;50.564;7.272;2023-05-08T00:57:08;15.60;99.90
831;DHT22;397;50.564;7.272;2023-05-08T00:59:34;15.60;99.90
831;DHT22;397;50.564;7.272;2023-05-08T01:02:02;15.60;99.90
831;DHT22;397;50.564;7.272;2023-05-08T01:04:31;15.60;99.90
831;DHT22;397;50.564;7.272;2023-05-08T01:07:00;15.60;99.90
831;DHT22;397;50.564;7.272;2023-05-08T01:09:28;15.70;99.90
831;DHT22;397;50.564;7.272;2023-05-08T01:12:14;15.70;99.90
831;DHT22;397;50.564;7.272;2023-05-08T01:20:44;15.60;99.90
831;DHT22;397;50.564;7.272;2023-05-08T01:23:34;15.70;99.90
831;DHT22;397;50.564;7.272;2023-05-08T01:26:05;15.60;99.90
831;DHT22;397;50.564;7.272;2023-05-08T01:34:33;15.60;99.90
831;DHT22;397;50.564;7.272;2023-05-08T01:37:04;15.40;99.90
831;DHT22;397;50.564;7.272;2023-05-08T01:39:54;15.40;99.90
831;DHT22;397;50.564;7.272;2023-05-08T01:42:23;15.30;99.90
831;DHT22;397;50.564;7.272;2023-05-08T01:45:04;15.30;99.90
831;DHT22;397;50.564;7.272;2023-05-08T01:47:33;15.30;99.90
831;DHT22;397;50.564;7.272;2023-05-08T01:50:17;15.30;99.90
831;DHT22;397;50.564;7.272;2023-05-08T01:52:47;15.40;99.90
831;DHT22;397;50.564;7.272;2023-05-08T01:55:20;15.40;99.90
831;DHT22;397;50.564;7.272;2023-05-08T01:57:51;15.30;99.90
831;DHT22;397;50.564;7.272;2023-05-08T02:00:21;15.40;99.90
831;DHT22;397;50.564;7.272;2023-05-08T02:02:51;15.40;99.90
831;DHT22;397;50.564;7.272;2023-05-08T02:05:21;15.50;99.90
831;DHT22;397;50.564;7.272;2023-05-08T02:07:50;15.50;99.90
831;DHT22;397;50.564;7.272;2023-05-08T02:10:19;15.50;99.90
831;DHT22;397;50.564;7.272;2023-05-08T02:12:49;15.50;99.90
831;DHT22;397;50.564;7.272;2023-05-08T02:15:18;15.50;99.90
831;DHT22;397;50.564;7.272;2023-05-08T02:17:48;15.50;99.90
831;DHT22;397;50.564;7.272;2023-05-08T02:20:18;15.50;99.90
831;DHT22;397;50.564;7.272;2023-05-08T02:22:49;15.50;99.90
831;DHT22;397;50.564;7.272;2023-05-08T02:25:17;15.40;99.90
831;DHT22;397;50.564;7.272;2023-05-08T02:27:47;15.50;99.90
831;DHT22;397;50.564;7.272;2023-05-08T02:30:16;15.40;99.90
831;DHT22;397;50.564;7.272;2023-05-08T02:32:45;15.50;99.90
831;DHT22;397;50.564;7.272;2023-05-08T02:35:16;15.50;99.90
831;DHT22;397;50.564;7.272;2023-05-08T02:37:55;15.50;99.90
831;DHT22;397;50.564;7.272;2023-05-08T02:40:25;15.50;99.90
831;DHT22;397;50.564;7.272;2023-05-08T02:42:54;15.50;99.90
831;DHT22;397;50.564;7.272;2023-05-08T02:45:24;15.50;99.90
831;DHT22;397;50.564;7.272;2023-05-08T02:47:59;15.50;99.90
831;DHT22;397;50.564;7.272;2023-05-08T02:50:28;15.40;99.90
831;DHT22;397;50.564;7.272;2023-05-08T02:53:02;15.40;99.90
831;DHT22;397;50.564;7.272;2023-05-08T02:55:42;15.40;99.90
831;DHT22;397;50.564;7.272;2023-05-08T03:00:55;15.40;99.90
831;DHT22;397;50.564;7.272;2023-05-08T03:03:31;15.40;99.90
831;DHT22;397;50.564;7.272;2023-05-08T03:05:55;15.30;99.90
831;DHT22;397;50.564;7.272;2023-05-08T03:08:28;15.30;99.90
831;DHT22;397;50.564;7.272;2023-05-08T03:11:00;15.30;99.90
831;DHT22;397;50.564;7.272;2023-05-08T03:13:47;15.20;99.90
831;DHT22;397;50.564;7.272;2023-05-08T03:16:17;15.20;99.90
831;DHT22;397;50.564;7.272;2023-05-08T03:18:58;15.20;99.90
831;DHT22;397;50.564;7.272;2023-05-08T03:21:23;15.00;99.90
831;DHT22;397;50.564;7.272;2023-05-08T03:23:54;15.10;99.90
831;DHT22;397;50.564;7.272;2023-05-08T03:26:23;15.10;99.90
831;DHT22;397;50.564;7.272;2023-05-08T03:28:51;15.10;99.90
831;DHT22;397;50.564;7.272;2023-05-08T03:31:20;15.20;99.90
831;DHT22;397;50.564;7.272;2023-05-08T03:33:51;15.10;99.90
831;DHT22;397;50.564;7.272;2023-05-08T03:36:19;15.10;99.90
831;DHT22;397;50.564;7.272;2023-05-08T03:38:48;15.00;99.90
831;DHT22;397;50.564;7.272;2023-05-08T03:41:16;15.10;99.90
831;DHT22;397;50.564;7.272;2023-05-08T03:43:44;15.00;99.90
831;DHT22;397;50.564;7.272;2023-05-08T03:46:12;14.80;99.90
831;DHT22;397;50.564;7.272;2023-05-08T03:48:40;14.80;99.90
831;DHT22;397;50.564;7.272;2023-05-08T03:51:09;14.80;99.90
831;DHT22;397;50.564;7.272;2023-05-08T03:53:37;14.80;99.90
831;DHT22;397;50.564;7.272;2023-05-08T03:56:04;14.70;99.90
831;DHT22;397;50.564;7.272;2023-05-08T03:58:46;14.80;99.90
831;DHT22;397;50.564;7.272;2023-05-08T04:01:24;14.70;99.90
831;DHT22;397;50.564;7.272;2023-05-08T04:07:05;14.80;99.90
831;DHT22;397;50.564;7.272;2023-05-08T04:11:59;14.80;99.90
831;DHT22;397;50.564;7.272;2023-05-08T04:14:35;14.80;99.90
831;DHT22;397;50.564;7.272;2023-05-08T04:17:01;14.80;99.90
831;DHT22;397;50.564;7.272;2023-05-08T04:19:32;14.80;99.90
831;DHT22;397;50.564;7.272;2023-05-08T04:22:04;14.70;99.90
831;DHT22;397;50.564;7.272;2023-05-08T04:24:31;14.70;99.90
831;DHT22;397;50.564;7.272;2023-05-08T04:27:00;14.80;99.90
831;DHT22;397;50.564;7.272;2023-05-08T04:29:29;14.80;99.90
831;DHT22;397;50.564;7.272;2023-05-08T04:31:57;14.80;99.90
831;DHT22;397;50.564;7.272;2023-05-08T04:34:27;14.80;99.90
831;DHT22;397;50.564;7.272;2023-05-08T04:36:54;14.70;99.90
831;DHT22;397;50.564;7.272;2023-05-08T04:39:22;14.70;99.90
831;DHT22;397;50.564;7.272;2023-05-08T04:41:50;14.70;99.90
831;DHT22;397;50.564;7.272;2023-05-08T04:44:19;14.70;99.90
831;DHT22;397;50.564;7.272;2023-05-08T04:46:46;14.70;99.90
831;DHT22;397;50.564;7.272;2023-05-08T04:49:15;14.60;99.90
831;DHT22;397;50.564;7.272;2023-05-08T04:51:43;14.70;99.90
831;DHT22;397;50.564;7.272;2023-05-08T04:54:10;14.70;99.90
831;DHT22;397;50.564;7.272;2023-05-08T04:56:38;14.70;99.90
831;DHT22;397;50.564;7.272;2023-05-08T04:59:05;14.60;99.90
831;DHT22;397;50.564;7.272;2023-05-08T05:01:33;14.60;99.90
831;DHT22;397;50.564;7.272;2023-05-08T05:04:01;14.60;99.90
831;DHT22;397;50.564;7.272;2023-05-08T05:06:29;14.60;99.90
831;DHT22;397;50.564;7.272;2023-05-08T05:08:56;14.60;99.90
831;DHT22;397;50.564;7.272;2023-05-08T05:11:24;14.60;99.90
831;DHT22;397;50.564;7.272;2023-05-08T05:13:51;14.60;99.90
831;DHT22;397;50.564;7.272;2023-05-08T05:16:19;14.60;99.90
831;DHT22;397;50.564;7.272;2023-05-08T05:18:46;14.60;99.90
831;DHT22;397;50.564;7.272;2023-05-08T05:21:14;14.70;99.90
831;DHT22;397;50.564;7.272;2023-05-08T05:23:42;14.70;99.90
831;DHT22;397;50.564;7.272;2023-05-08T05:26:09;14.70;99.90
831;DHT22;397;50.564;7.272;2023-05-08T05:28:37;14.80;99.90
831;DHT22;397;50.564;7.272;2023-05-08T05:31:04;14.80;99.90
831;DHT22;397;50.564;7.272;2023-05-08T05:33:32;14.80;99.90
831;DHT22;397;50.564;7.272;2023-05-08T05:35:59;14.80;99.90
831;DHT22;397;50.564;7.272;2023-05-08T05:38:27;14.70;99.90
831;DHT22;397;50.564;7.272;2023-05-08T05:40:54;14.70;99.90
831;DHT22;397;50.564;7.272;2023-05-08T05:43:22;14.60;99.90
831;DHT22;397;50.564;7.272;2023-05-08T05:45:49;14.60;99.90
831;DHT22;397;50.564;7.272;2023-05-08T05:48:17;14.70;99.90
831;DHT22;397;50.564;7.272;2023-05-08T05:50:44;14.70;99.90
831;DHT22;397;50.564;7.272;2023-05-08T05:53:12;14.70;99.90
831;DHT22;397;50.564;7.272;2023-05-08T05:55:40;14.70;99.90
831;DHT22;397;50.564;7.272;2023-05-08T05:58:08;14.70;99.90
831;DHT22;397;50.564;7.272;2023-05-08T06:00:35;14.60;99.90
831;DHT22;397;50.564;7.272;2023-05-08T06:03:03;14.70;99.90
831;DHT22;397;50.564;7.272;2023-05-08T06:05:31;14.70;99.90
831;DHT22;397;50.564;7.272;2023-05-08T06:07:58;14.80;99.90
831;DHT22;397;50.564;7.272;2023-05-08T06:10:26;14.70;99.90
831;DHT22;397;50.564;7.272;2023-05-08T06:12:53;14.70;99.90
831;DHT22;397;50.564;7.272;2023-05-08T06:15:22;14.80;99.90
831;DHT22;397;50.564;7.272;2023-05-08T06:17:49;14.90;99.90
831;DHT22;397;50.564;7.272;2023-05-08T06:20:18;14.90;99.90
831;DHT22;397;50.564;7.272;2023-05-08T06:22:45;14.90;99.90
831;DHT22;397;50.564;7.272;2023-05-08T06:25:13;14.80;99.90
831;DHT22;397;50.564;7.272;2023-05-08T06:27:41;14.90;99.90
831;DHT22;397;50.564;7.272;2023-05-08T06:30:09;14.90;99.90
831;DHT22;397;50.564;7.272;2023-05-08T06:32:37;15.00;99.90
831;DHT22;397;50.564;7.272;2023-05-08T06:35:05;15.10;99.90
831;DHT22;397;50.564;7.272;2023-05-08T06:37:33;15.00;99.90
831;DHT22;397;50.564;7.272;2023-05-08T06:40:00;15.00;99.90
831;DHT22;397;50.564;7.272;2023-05-08T06:42:29;15.00;99.90
831;DHT22;397;50.564;7.272;2023-05-08T06:44:56;14.90;99.90
831;DHT22;397;50.564;7.272;2023-05-08T06:47:24;14.90;99.90
831;DHT22;397;50.564;7.272;2023-05-08T06:49:52;15.00;99.90
831;DHT22;397;50.564;7.272;2023-05-08T06:52:20;15.00;99.90
831;DHT22;397;50.564;7.272;2023-05-08T06:54:49;14.90;99.90
831;DHT22;397;50.564;7.272;2023-05-08T06:57:17;15.00;99.90
831;DHT22;397;50.564;7.272;2023-05-08T06:59:45;15.00;99.90
831;DHT22;397;50.564;7.272;2023-05-08T07:02:12;15.00;99.90
831;DHT22;397;50.564;7.272;2023-05-08T07:04:43;15.10;99.90
831;DHT22;397;50.564;7.272;2023-05-08T07:07:10;15.00;99.90
831;DHT22;397;50.564;7.272;2023-05-08T07:09:39;15.00;99.90
831;DHT22;397;50.564;7.272;2023-05-08T07:12:07;15.00;99.90
831;DHT22;397;50.564;7.272;2023-05-08T07:14:35;15.10;99.90
831;DHT22;397;50.564;7.272;2023-05-08T07:17:03;15.00;99.90
831;DHT22;397;50.564;7.272;2023-05-08T07:19:35;15.00;99.90
831;DHT22;397;50.564;7.272;2023-05-08T07:22:04;15.10;99.90
831;DHT22;397;50.564;7.272;2023-05-08T07:24:32;15.10;99.90
831;DHT22;397;50.564;7.272;2023-05-08T07:26:59;15.00;99.90
831;DHT22;397;50.564;7.272;2023-05-08T07:29:27;15.10;99.90
831;DHT22;397;50.564;7.272;2023-05-08T07:31:54;15.10;99.90
831;DHT22;397;50.564;7.272;2023-05-08T07:34:22;15.20;99.90
831;DHT22;397;50.564;7.272;2023-05-08T07:36:49;15.30;99.90
831;DHT22;397;50.564;7.272;2023-05-08T07:39:17;15.30;99.90
831;DHT22;397;50.564;7.272;2023-05-08T07:41:45;15.40;99.90
831;DHT22;397;50.564;7.272;2023-05-08T07:44:12;15.40;99.90
831;DHT22;397;50.564;7.272;2023-05-08T07:46:40;15.40;99.90
831;DHT22;397;50.564;7.272;2023-05-08T07:49:07;15.60;99.90
831;DHT22;397;50.564;7.272;2023-05-08T07:51:35;15.80;99.90
831;DHT22;397;50.564;7.272;2023-05-08T07:54:03;15.80;99.90
831;DHT22;397;50.564;7.272;2023-05-08T07:56:30;15.80;99.90
831;DHT22;397;50.564;7.272;2023-05-08T07:58:58;15.70;99.90
831;DHT22;397;50.564;7.272;2023-05-08T08:01:26;15.80;99.90
831;DHT22;397;50.564;7.272;2023-05-08T08:03:53;16.00;99.90
831;DHT22;397;50.564;7.272;2023-05-08T08:06:21;15.80;99.90
831;DHT22;397;50.564;7.272;2023-05-08T08:08:48;15.80;99.90
831;DHT22;397;50.564;7.272;2023-05-08T08:11:16;15.90;99.90
831;DHT22;397;50.564;7.272;2023-05-08T08:13:43;16.00;99.90
831;DHT22;397;50.564;7.272;2023-05-08T08:16:11;16.10;99.90
831;DHT22;397;50.564;7.272;2023-05-08T08:18:39;16.20;99.90
831;DHT22;397;50.564;7.272;2023-05-08T08:21:06;16.20;99.90
831;DHT22;397;50.564;7.272;2023-05-08T08:23:34;16.20;99.90
831;DHT22;397;50.564;7.272;2023-05-08T08:26:02;16.10;99.90
831;DHT22;397;50.564;7.272;2023-05-08T08:28:29;16.00;99.90
831;DHT22;397;50.564;7.272;2023-05-08T08:30:57;16.00;99.90
831;DHT22;397;50.564;7.272;2023-05-08T08:33:27;15.90;99.90
831;DHT22;397;50.564;7.272;2023-05-08T08:35:55;16.10;99.90
831;DHT22;397;50.564;7.272;2023-05-08T08:38:22;16.20;99.90
831;DHT22;397;50.564;7.272;2023-05-08T08:40:50;16.00;99.90
831;DHT22;397;50.564;7.272;2023-05-08T08:43:18;16.10;99.90
831;DHT22;397;50.564;7.272;2023-05-08T08:45:46;16.30;99.90
831;DHT22;397;50.564;7.272;2023-05-08T08:48:14;16.20;99.90
831;DHT22;397;50.564;7.272;2023-05-08T08:50:43;16.00;99.90
831;DHT22;397;50.564;7.272;2023-05-08T08:53:24;16.00;99.90
831;DHT22;397;50.564;7.272;2023-05-08T08:55:53;16.00;99.90
831;DHT22;397;50.564;7.272;2023-05-08T08:58:36;16.10;99.90
831;DHT22;397;50.564;7.272;2023-05-08T09:01:05;16.00;99.90
831;DHT22;397;50.564;7.272;2023-05-08T09:03:34;15.90;99.90
831;DHT22;397;50.564;7.272;2023-05-08T09:06:02;16.10;99.90
831;DHT22;397;50.564;7.272;2023-05-08T09:08:30;16.00;99.90
831;DHT22;397;50.564;7.272;2023-05-08T09:10:59;16.10;99.90
831;DHT22;397;50.564;7.272;2023-05-08T09:13:31;16.30;99.90
831;DHT22;397;50.564;7.272;2023-05-08T09:15:59;16.30;99.90
831;DHT22;397;50.564;7.272;2023-05-08T09:18:26;16.30;99.90
831;DHT22;397;50.564;7.272;2023-05-08T09:20:54;16.40;99.90
831;DHT22;397;50.564;7.272;2023-05-08T09:23:22;16.70;99.90
831;DHT22;397;50.564;7.272;2023-05-08T09:25:49;16.70;99.90
831;DHT22;397;50.564;7.272;2023-05-08T09:28:22;16.80;99.90
831;DHT22;397;50.564;7.272;2023-05-08T09:30:55;16.80;99.90
831;DHT22;397;50.564;7.272;2023-05-08T09:33:27;16.90;99.90
831;DHT22;397;50.564;7.272;2023-05-08T09:35:56;16.70;99.90
831;DHT22;397;50.564;7.272;2023-05-08T09:38:38;16.80;99.90
831;DHT22;397;50.564;7.272;2023-05-08T09:41:10;16.70;99.90
831;DHT22;397;50.564;7.272;2023-05-08T09:43:40;16.70;99.90
831;DHT22;397;50.564;7.272;2023-05-08T09:46:22;16.60;99.90
831;DHT22;397;50.564;7.272;2023-05-08T09:48:59;16.40;99.90
831;DHT22;397;50.564;7.272;2023-05-08T09:51:23;16.40;99.90
831;DHT22;397;50.564;7.272;2023-05-08T09:53:52;16.20;99.90
831;DHT22;397;50.564;7.272;2023-05-08T09:56:37;16.00;99.90
831;DHT22;397;50.564;7.272;2023-05-08T09:59:24;16.10;99.90
831;DHT22;397;50.564;7.272;2023-05-08T10:01:49;16.20;99.90
831;DHT22;397;50.564;7.272;2023-05-08T10:04:17;16.20;99.90
831;DHT22;397;50.564;7.272;2023-05-08T10:06:57;16.20;99.90
831;DHT22;397;50.564;7.272;2023-05-08T10:09:24;16.40;99.90
831;DHT22;397;50.564;7.272;2023-05-08T10:11:52;16.40;99.90
831;DHT22;397;50.564;7.272;2023-05-08T10:14:21;16.50;99.90
831;DHT22;397;50.564;7.272;2023-05-08T10:16:51;16.50;99.90
831;DHT22;397;50.564;7.272;2023-05-08T10:19:24;16.60;99.90
831;DHT22;397;50.564;7.272;2023-05-08T10:21:53;16.60;99.90
831;DHT22;397;50.564;7.272;2023-05-08T10:24:32;16.70;99.90
831;DHT22;397;50.564;7.272;2023-05-08T10:27:16;16.80;99.90
831;DHT22;397;50.564;7.272;2023-05-08T10:29:53;16.60;99.90
831;DHT22;397;50.564;7.272;2023-05-08T10:32:23;16.60;99.90
831;DHT22;397;50.564;7.272;2023-05-08T10:34:55;16.50;99.90
831;DHT22;397;50.564;7.272;2023-05-08T10:37:24;16.50;99.90
831;DHT22;397;50.564;7.272;2023-05-08T10:39:53;16.60;99.90
831;DHT22;397;50.564;7.272;2023-05-08T10:42:21;16.70;99.90
831;DHT22;397;50.564;7.272;2023-05-08T10:44:49;16.40;99.90
831;DHT22;397;50.564;7.272;2023-05-08T10:47:50;16.40;99.90
831;DHT22;397;50.564;7.272;2023-05-08T10:50:21;16.40;99.90
831;DHT22;397;50.564;7.272;2023-05-08T10:53:42;16.40;99.90
831;DHT22;397;50.564;7.272;2023-05-08T10:55:28;16.50;99.90
831;DHT22;397;50.564;7.272;2023-05-08T10:58:10;16.50;99.90
831;DHT22;397;50.564;7.272;2023-05-08T11:03:37;16.70;99.90
831;DHT22;397;50.564;7.272;2023-05-08T11:06:01;16.70;99.90
831;DHT22;397;50.564;7.272;2023-05-08T11:08:30;16.70;99.90
831;DHT22;397;50.564;7.272;2023-05-08T11:19:24;17.30;99.90
831;DHT22;397;50.564;7.272;2023-05-08T11:22:24;17.20;99.90
831;DHT22;397;50.564;7.272;2023-05-08T11:33:19;17.60;99.90
831;DHT22;397;50.564;7.272;2023-05-08T11:35:54;17.60;99.90
831;DHT22;397;50.564;7.272;2023-05-08T11:38:37;17.60;99.90
831;DHT22;397;50.564;7.272;2023-05-08T11:41:21;17.40;99.90
831;DHT22;397;50.564;7.272;2023-05-08T11:46:48;17.50;99.90
831;DHT22;397;50.564;7.272;2023-05-08T11:49:19;17.80;99.90
831;DHT22;397;50.564;7.272;2023-05-08T11:51:51;17.80;99.90
831;DHT22;397;50.564;7.272;2023-05-08T11:54:23;18.10;99.90
831;DHT22;397;50.564;7.272;2023-05-08T11:56:52;18.30;99.90
831;DHT22;397;50.564;7.272;2023-05-08T11:59:20;18.40;99.90
831;DHT22;397;50.564;7.272;2023-05-08T12:01:48;18.60;99.90
831;DHT22;397;50.564;7.272;2023-05-08T12:04:16;18.70;99.90
831;DHT22;397;50.564;7.272;2023-05-08T12:06:43;18.90;99.90
831;DHT22;397;50.564;7.272;2023-05-08T12:09:17;19.00;99.90
831;DHT22;397;50.564;7.272;2023-05-08T12:11:45;19.00;99.90
831;DHT22;397;50.564;7.272;2023-05-08T12:14:15;18.90;99.90
831;DHT22;397;50.564;7.272;2023-05-08T12:16:43;19.20;99.90
831;DHT22;397;50.564;7.272;2023-05-08T12:19:12;19.30;99.90
831;DHT22;397;50.564;7.272;2023-05-08T12:21:46;19.20;99.90
831;DHT22;397;50.564;7.272;2023-05-08T12:24:17;19.50;99.90
831;DHT22;397;50.564;7.272;2023-05-08T12:26:46;19.50;99.90
831;DHT22;397;50.564;7.272;2023-05-08T12:29:17;19.50;99.90
831;DHT22;397;50.564;7.272;2023-05-08T12:31:44;19.80;99.90
831;DHT22;397;50.564;7.272;2023-05-08T12:34:12;19.90;99.90
831;DHT22;397;50.564;7.272;2023-05-08T12:36:40;19.80;99.90
831;DHT22;397;50.564;7.272;2023-05-08T12:39:15;19.60;99.90
831;DHT22;397;50.564;7.272;2023-05-08T12:41:50;19.60;99.90
831;DHT22;397;50.564;7.272;2023-05-08T12:44:25;19.70;99.90
831;DHT22;397;50.564;7.272;2023-05-08T12:46:54;19.40;99.90
831;DHT22;397;50.564;7.272;2023-05-08T12:49:31;19.60;99.90
831;DHT22;397;50.564;7.272;2023-05-08T12:52:07;19.70;99.90
831;DHT22;397;50.564;7.272;2023-05-08T12:54:40;19.40;99.90
831;DHT22;397;50.564;7.272;2023-05-08T12:57:16;19.70;99.90
831;DHT22;397;50.564;7.272;2023-05-08T12:59:44;19.90;99.90
831;DHT22;397;50.564;7.272;2023-05-08T13:04:42;20.00;99.90
831;DHT22;397;50.564;7.272;2023-05-08T13:07:10;20.10;99.90
831;DHT22;397;50.564;7.272;2023-05-08T13:09:39;20.20;99.90
831;DHT22;397;50.564;7.272;2023-05-08T13:12:06;20.20;99.90
831;DHT22;397;50.564;7.272;2023-05-08T13:14:34;20.30;99.90
831;DHT22;397;50.564;7.272;2023-05-08T13:17:01;20.00;99.90
831;DHT22;397;50.564;7.272;2023-05-08T13:19:29;20.00;99.90
831;DHT22;397;50.564;7.272;2023-05-08T13:21:56;20.00;99.90
831;DHT22;397;50.564;7.272;2023-05-08T13:24:24;20.10;99.90
831;DHT22;397;50.564;7.272;2023-05-08T13:26:52;20.20;99.90
831;DHT22;397;50.564;7.272;2023-05-08T13:29:19;20.30;99.90
831;DHT22;397;50.564;7.272;2023-05-08T13:31:47;20.40;99.90
831;DHT22;397;50.564;7.272;2023-05-08T13:34:15;20.40;99.90
831;DHT22;397;50.564;7.272;2023-05-08T13:36:42;20.60;99.90
831;DHT22;397;50.564;7.272;2023-05-08T13:39:10;20.30;99.90
831;DHT22;397;50.564;7.272;2023-05-08T13:41:37;20.40;99.90
831;DHT22;397;50.564;7.272;2023-05-08T13:44:05;20.40;99.90
831;DHT22;397;50.564;7.272;2023-05-08T13:46:32;20.50;99.90
831;DHT22;397;50.564;7.272;2023-05-08T13:49:00;20.50;99.90
831;DHT22;397;50.564;7.272;2023-05-08T13:51:27;20.40;99.90
831;DHT22;397;50.564;7.272;2023-05-08T13:53:55;20.20;99.90
831;DHT22;397;50.564;7.272;2023-05-08T13:56:22;20.40;99.90
831;DHT22;397;50.564;7.272;2023-05-08T13:58:51;20.50;99.90
831;DHT22;397;50.564;7.272;2023-05-08T14:01:18;20.40;99.90
831;DHT22;397;50.564;7.272;2023-05-08T14:03:46;20.20;99.90
831;DHT22;397;50.564;7.272;2023-05-08T14:06:13;20.30;99.90
831;DHT22;397;50.564;7.272;2023-05-08T14:08:41;20.20;99.90
831;DHT22;397;50.564;7.272;2023-05-08T14:11:08;20.10;99.90
831;DHT22;397;50.564;7.272;2023-05-08T14:13:36;20.10;99.90
831;DHT22;397;50.564;7.272;2023-05-08T14:16:04;20.20;99.90
831;DHT22;397;50.564;7.272;2023-05-08T14:18:33;20.00;99.90
831;DHT22;397;50.564;7.272;2023-05-08T14:21:01;19.90;99.90
831;DHT22;397;50.564;7.272;2023-05-08T14:23:28;20.10;99.90
831;DHT22;397;50.564;7.272;2023-05-08T14:25:56;20.40;99.90
831;DHT22;397;50.564;7.272;2023-05-08T14:28:23;20.50;99.90
831;DHT22;397;50.564;7.272;2023-05-08T14:30:51;20.50;99.90
831;DHT22;397;50.564;7.272;2023-05-08T14:33:19;20.60;99.90
831;DHT22;397;50.564;7.272;2023-05-08T14:35:46;20.50;99.90
831;DHT22;397;50.564;7.272;2023-05-08T14:38:14;20.60;99.90
831;DHT22;397;50.564;7.272;2023-05-08T14:40:41;20.70;99.90
831;DHT22;397;50.564;7.272;2023-05-08T14:43:09;20.70;99.90
831;DHT22;397;50.564;7.272;2023-05-08T14:45:37;20.50;99.90
831;DHT22;397;50.564;7.272;2023-05-08T14:48:05;20.30;99.90
831;DHT22;397;50.564;7.272;2023-05-08T14:50:32;20.10;99.90
831;DHT22;397;50.564;7.272;2023-05-08T14:53:00;20.10;99.90
831;DHT22;397;50.564;7.272;2023-05-08T14:55:27;20.20;99.90
831;DHT22;397;50.564;7.272;2023-05-08T14:57:55;20.30;99.90
831;DHT22;397;50.564;7.272;2023-05-08T15:00:22;20.10;99.90
831;DHT22;397;50.564;7.272;2023-05-08T15:02:50;20.30;99.90
831;DHT22;397;50.564;7.272;2023-05-08T15:05:17;20.50;99.90
831;DHT22;397;50.564;7.272;2023-05-08T15:07:45;20.60;99.90
831;DHT22;397;50.564;7.272;2023-05-08T15:10:12;20.40;99.90
831;DHT22;397;50.564;7.272;2023-05-08T15:12:40;20.40;99.90
831;DHT22;397;50.564;7.272;2023-05-08T15:15:08;20.30;99.90
831;DHT22;397;50.564;7.272;2023-05-08T15:17:35;20.20;99.90
831;DHT22;397;50.564;7.272;2023-05-08T15:20:03;20.20;99.90
831;DHT22;397;50.564;7.272;2023-05-08T15:22:31;20.20;99.90
831;DHT22;397;50.564;7.272;2023-05-08T15:24:59;20.30;99.90
831;DHT22;397;50.564;7.272;2023-05-08T15:27:28;20.40;99.90
831;DHT22;397;50.564;7.272;2023-05-08T15:29:57;20.40;99.90
831;DHT22;397;50.564;7.272;2023-05-08T15:32:25;20.50;99.90
831;DHT22;397;50.564;7.272;2023-05-08T15:34:52;20.60;99.90
831;DHT22;397;50.564;7.272;2023-05-08T15:37:20;20.50;99.90
831;DHT22;397;50.564;7.272;2023-05-08T15:39:47;20.40;99.90
831;DHT22;397;50.564;7.272;2023-05-08T15:42:15;20.40;99.90
831;DHT22;397;50.564;7.272;2023-05-08T15:44:43;20.30;99.90
831;DHT22;397;50.564;7.272;2023-05-08T15:47:10;20.30;99.90
831;DHT22;397;50.564;7.272;2023-05-08T15:49:38;20.40;99.90
831;DHT22;397;50.564;7.272;2023-05-08T15:52:05;20.50;99.90
831;DHT22;397;50.564;7.272;2023-05-08T15:54:33;20.50;99.90
831;DHT22;397;50.564;7.272;2023-05-08T15:57:00;20.50;99.90
831;DHT22;397;50.564;7.272;2023-05-08T15:59:28;20.40;99.90
831;DHT22;397;50.564;7.272;2023-05-08T16:01:55;20.30;99.90
831;DHT22;397;50.564;7.272;2023-05-08T16:04:23;20.30;99.90
831;DHT22;397;50.564;7.272;2023-05-08T16:06:50;20.10;99.90
831;DHT22;397;50.564;7.272;2023-05-08T16:09:18;20.00;99.90
831;DHT22;397;50.564;7.272;2023-05-08T16:11:45;20.00;99.90
831;DHT22;397;50.564;7.272;2023-05-08T16:14:13;19.90;99.90
831;DHT22;397;50.564;7.272;2023-05-08T16:16:42;20.00;99.90
831;DHT22;397;50.564;7.272;2023-05-08T16:19:10;20.00;99.90
831;DHT22;397;50.564;7.272;2023-05-08T16:21:37;20.00;99.90
831;DHT22;397;50.564;7.272;2023-05-08T16:24:05;20.10;99.90
831;DHT22;397;50.564;7.272;2023-05-08T16:26:33;20.10;99.90
831;DHT22;397;50.564;7.272;2023-05-08T16:29:00;20.00;99.90
831;DHT22;397;50.564;7.272;2023-05-08T16:31:28;20.00;99.90
831;DHT22;397;50.564;7.272;2023-05-08T16:33:55;20.00;99.90
831;DHT22;397;50.564;7.272;2023-05-08T16:36:23;19.90;99.90
831;DHT22;397;50.564;7.272;2023-05-08T16:38:52;19.80;99.90
831;DHT22;397;50.564;7.272;2023-05-08T16:41:19;19.70;99.90
831;DHT22;397;50.564;7.272;2023-05-08T16:43:48;19.70;99.90
831;DHT22;397;50.564;7.272;2023-05-08T16:46:15;19.60;99.90
831;DHT22;397;50.564;7.272;2023-05-08T16:48:43;19.60;99.90
831;DHT22;397;50.564;7.272;2023-05-08T16:51:10;19.60;99.90
831;DHT22;397;50.564;7.272;2023-05-08T16:53:38;19.50;99.90
831;DHT22;397;50.564;7.272;2023-05-08T16:56:06;19.40;99.90
831;DHT22;397;50.564;7.272;2023-05-08T16:58:33;19.40;99.90
831;DHT22;397;50.564;7.272;2023-05-08T17:01:01;19.40;99.90
831;DHT22;397;50.564;7.272;2023-05-08T17:03:28;19.40;99.90
831;DHT22;397;50.564;7.272;2023-05-08T17:05:56;19.30;99.90
831;DHT22;397;50.564;7.272;2023-05-08T17:08:25;19.20;99.90
831;DHT22;397;50.564;7.272;2023-05-08T17:10:52;19.20;99.90
831;DHT22;397;50.564;7.272;2023-05-08T17:13:20;19.30;99.90
831;DHT22;397;50.564;7.272;2023-05-08T17:15:47;19.10;99.90
831;DHT22;397;50.564;7.272;2023-05-08T17:18:15;19.20;99.90
831;DHT22;397;50.564;7.272;2023-05-08T17:20:42;19.20;99.90
831;DHT22;397;50.564;7.272;2023-05-08T17:23:18;19.10;99.90
831;DHT22;397;50.564;7.272;2023-05-08T17:25:45;19.10;99.90
831;DHT22;397;50.564;7.272;2023-05-08T17:28:13;19.10;99.90
831;DHT22;397;50.564;7.272;2023-05-08T17:30:40;19.10;99.90
831;DHT22;397;50.564;7.272;2023-05-08T17:33:08;19.00;99.90